Time,TemperatureF,DewpointF,PressureIn,WindDirection,WindDirectionDegrees,WindSpeedMPH,WindSpeedGustMPH,Humidity,HourlyPrecipIn,Conditions,Clouds,dailyrainin,SolarRadiationWatts/m^2,SoftwareType,DateUTC
2013-01-16 00:03:00,27.1,21.1,29.81,NNE,29,1.3,3.5,78,0.00,CLR,,0.01,0.0,WeatherDisplay:10.37,2013-01-15 23:03:00,
2013-01-16 00:08:00,27.2,21.2,29.81,NNE,29,3.4,4.6,78,0.00,RA,,0.00,0.0,WeatherDisplay:10.37,2013-01-15 23:08:00,
2013-01-16 00:13:00,27.1,21.1,29.81,NNE,29,2.2,4.0,78,0.00,RA,,0.00,0.0,WeatherDisplay:10.37,2013-01-15 23:13:00,
2013-01-16 00:18:00,27.1,21.4,29.81,NNE,29,2.8,4.6,79,0.00,RA,,0.00,0.0,WeatherDisplay:10.37,2013-01-15 23:18:00,
2013-01-16 00:23:00,27.0,21.3,29.82,NNE,29,3.5,4.6,79,0.00,RA,,0.00,0.0,WeatherDisplay:10.37,2013-01-15 23:23:00,
2013-01-16 00:28:00,26.9,21.2,29.82,NNE,29,2.0,3.5,79,0.00,RA,,0.00,0.0,WeatherDisplay:10.37,2013-01-15 23:28:00,
2013-01-16 00:33:00,26.9,21.5,29.82,NNE,30,2.3,4.6,80,0.00,CLR,,0.00,0.0,WeatherDisplay:10.37,2013-01-15 23:33:00,
2013-01-16 00:38:00,26.9,21.5,29.82,NNE,30,3.0,4.6,80,0.00,CLR,,0.00,0.0,WeatherDisplay:10.37,2013-01-15 23:38:00,
2013-01-16 00:43:00,26.9,21.5,29.82,NNE,30,3.5,4.6,80,0.00,CLR,,0.00,0.0,WeatherDisplay:10.37,2013-01-15 23:43:00,
2013-01-16 00:48:00,27.1,21.7,29.82,NNE,30,4.0,5.8,80,0.00,CLR,,0.00,0.0,WeatherDisplay:10.37,2013-01-15 23:48:00,
2013-01-16 00:53:00,27.1,21.7,29.82,NNE,30,2.6,3.5,80,0.00,CLR,,0.00,0.0,WeatherDisplay:10.37,2013-01-15 23:53:00,
2013-01-16 00:58:00,27.2,21.8,29.82,NNE,30,0.1,3.5,80,0.00,CLR,,0.00,0.0,WeatherDisplay:10.37,2013-01-15 23:58:00,
2013-01-16 01:03:00,27.2,22.1,29.82,NNE,30,0.1,1.1,81,0.00,CLR,,0.00,0.0,WeatherDisplay:10.37,2013-01-16 00:03:00,
2013-01-16 01:08:00,27.1,22.0,29.82,NNE,30,1.5,3.5,81,0.00,CLR,,0.00,0.0,WeatherDisplay:10.37,2013-01-16 00:08:00,
2013-01-16 01:13:00,27.1,22.0,29.82,NNE,30,3.1,3.5,81,0.00,CLR,,0.00,0.0,WeatherDisplay:10.37,2013-01-16 00:13:00,
2013-01-16 01:18:00,27.0,21.9,29.82,NNE,30,2.1,3.5,81,0.00,CLR,,0.00,0.0,WeatherDisplay:10.37,2013-01-16 00:18:00,
2013-01-16 01:23:00,27.1,22.0,29.82,NNE,30,1.9,3.5,81,0.00,CLR,,0.00,0.0,WeatherDisplay:10.37,2013-01-16 00:23:00,
2013-01-16 01:28:00,27.1,22.3,29.82,NNE,30,2.1,3.5,82,0.00,CLR,,0.00,0.0,WeatherDisplay:10.37,2013-01-16 00:28:00,
2013-01-16 01:33:00,27.1,22.3,29.82,NNE,30,0.0,2.3,82,0.00,CLR,,0.00,0.0,WeatherDisplay:10.37,2013-01-16 00:33:00,
2013-01-16 01:38:00,27.1,22.3,29.82,NNE,30,0.0,1.1,82,0.00,CLR,,0.00,0.0,WeatherDisplay:10.37,2013-01-16 00:38:00,
2013-01-16 01:43:00,26.8,22.0,29.82,NNE,30,0.1,2.3,82,0.00,CLR,,0.00,0.0,WeatherDisplay:10.37,2013-01-16 00:43:00,
2013-01-16 01:48:00,26.6,21.8,29.82,NNE,30,0.0,0.0,82,0.00,CLR,,0.00,0.0,WeatherDisplay:10.37,2013-01-16 00:48:00,
2013-01-16 01:53:00,26.3,21.8,29.82,NNE,30,0.0,0.0,83,0.00,CLR,,0.00,0.0,WeatherDisplay:10.37,2013-01-16 00:53:00,
2013-01-16 01:58:00,26.0,21.5,29.82,NNE,30,0.0,0.0,83,0.00,CLR,,0.00,0.0,WeatherDisplay:10.37,2013-01-16 00:58:00,
2013-01-16 02:03:00,25.8,21.3,29.82,NNE,30,0.0,0.0,83,0.00,CLR,,0.00,0.0,WeatherDisplay:10.37,2013-01-16 01:03:00,
2013-01-16 02:08:00,25.4,20.9,29.82,NNE,30,0.0,0.0,83,0.00,CLR,,0.00,0.0,WeatherDisplay:10.37,2013-01-16 01:08:00,
2013-01-16 02:13:00,24.9,20.7,29.82,NNE,30,0.0,0.0,84,0.00,CLR,,0.00,0.0,WeatherDisplay:10.37,2013-01-16 01:13:00,
2013-01-16 02:18:00,24.5,20.3,29.82,NNE,30,0.0,0.0,84,0.00,CLR,,0.00,0.0,WeatherDisplay:10.37,2013-01-16 01:18:00,
2013-01-16 02:23:00,24.2,20.3,29.82,NNE,30,0.0,0.0,85,0.00,CLR,,0.00,0.0,WeatherDisplay:10.37,2013-01-16 01:23:00,
2013-01-16 02:28:00,24.2,20.6,29.82,NNE,30,0.3,2.0,86,0.00,CLR,,0.00,0.0,WeatherDisplay:10.37,2013-01-16 01:28:00,
2013-01-16 02:33:00,24.1,20.5,29.82,NNE,30,0.9,2.3,86,0.00,CLR,,0.00,0.0,WeatherDisplay:10.37,2013-01-16 01:33:00,
2013-01-16 02:38:00,24.5,21.2,29.82,NNE,30,0.2,2.0,87,0.00,CLR,,0.00,0.0,WeatherDisplay:10.37,2013-01-16 01:38:00,
2013-01-16 02:43:00,24.5,21.2,29.82,NNE,30,0.9,2.3,87,0.00,CLR,,0.00,0.0,WeatherDisplay:10.37,2013-01-16 01:43:00,
2013-01-16 02:48:00,24.4,21.1,29.82,NNE,30,0.0,0.0,87,0.00,CLR,,0.00,0.0,WeatherDisplay:10.37,2013-01-16 01:48:00,
2013-01-16 02:53:00,24.2,20.9,29.82,NNE,30,0.0,0.0,87,0.00,CLR,,0.00,0.0,WeatherDisplay:10.37,2013-01-16 01:53:00,
2013-01-16 02:58:00,23.8,20.2,29.82,NNE,30,0.0,0.0,86,0.00,CLR,,0.00,0.0,WeatherDisplay:10.37,2013-01-16 01:58:00,
2013-01-16 03:03:00,23.4,20.1,29.82,NNE,30,0.0,0.0,87,0.00,CLR,,0.00,0.0,WeatherDisplay:10.37,2013-01-16 02:03:00,
2013-01-16 03:08:00,23.1,19.8,29.82,NNE,30,0.0,0.0,87,0.00,CLR,,0.00,0.0,WeatherDisplay:10.37,2013-01-16 02:08:00,
2013-01-16 03:13:00,22.8,19.5,29.82,NNE,30,0.0,0.0,87,0.00,CLR,,0.00,0.0,WeatherDisplay:10.37,2013-01-16 02:13:00,
2013-01-16 03:18:00,22.5,19.5,29.82,NNE,30,0.0,0.0,88,0.00,CLR,,0.00,0.0,WeatherDisplay:10.37,2013-01-16 02:18:00,
2013-01-16 03:23:00,22.3,19.3,29.82,NNE,30,0.0,0.0,88,0.00,CLR,,0.00,0.0,WeatherDisplay:10.37,2013-01-16 02:23:00,
2013-01-16 03:28:00,22.0,19.0,29.82,NNE,30,0.0,0.0,88,0.00,CLR,,0.00,0.0,WeatherDisplay:10.37,2013-01-16 02:28:00,
2013-01-16 03:33:00,21.7,18.7,29.82,NNE,30,0.0,0.0,88,0.00,CLR,,0.00,0.0,WeatherDisplay:10.37,2013-01-16 02:33:00,
2013-01-16 03:38:00,21.4,18.4,29.82,NNE,30,0.0,0.0,88,0.00,CLR,,0.00,0.0,WeatherDisplay:10.37,2013-01-16 02:38:00,
2013-01-16 03:43:00,21.1,18.1,29.82,NNE,30,0.0,0.0,88,0.00,CLR,,0.00,0.0,WeatherDisplay:10.37,2013-01-16 02:43:00,
2013-01-16 03:48:00,20.9,17.9,29.82,NNE,30,0.0,0.0,88,0.00,CLR,,0.00,0.0,WeatherDisplay:10.37,2013-01-16 02:48:00,
2013-01-16 03:53:00,20.6,17.6,29.82,NNE,30,0.0,0.0,88,0.00,CLR,,0.00,0.0,WeatherDisplay:10.37,2013-01-16 02:53:00,
2013-01-16 03:58:00,20.4,17.4,29.82,NNE,30,0.0,0.0,88,0.00,CLR,,0.00,0.0,WeatherDisplay:10.37,2013-01-16 02:58:00,
2013-01-16 04:03:00,20.4,17.7,29.82,NNE,30,0.0,0.0,89,0.00,CLR,,0.00,0.0,WeatherDisplay:10.37,2013-01-16 03:03:00,
2013-01-16 04:08:00,20.4,17.7,29.82,NNE,30,0.0,0.0,89,0.00,CLR,,0.00,0.0,WeatherDisplay:10.37,2013-01-16 03:08:00,
2013-01-16 04:13:00,20.5,18.0,29.82,NNE,30,0.0,0.0,90,0.00,CLR,,0.00,0.0,WeatherDisplay:10.37,2013-01-16 03:13:00,
2013-01-16 04:18:00,20.7,18.2,29.82,NNE,30,0.0,0.0,90,0.00,,,0.00,0.0,WeatherDisplay:10.37,2013-01-16 03:18:00,
2013-01-16 04:23:00,21.0,18.8,29.82,NNE,30,0.0,0.0,91,0.00,,,0.00,0.0,WeatherDisplay:10.37,2013-01-16 03:23:00,
2013-01-16 04:28:00,21.2,19.0,29.82,NNE,30,0.0,0.0,91,0.00,,,0.00,0.0,WeatherDisplay:10.37,2013-01-16 03:28:00,
2013-01-16 04:33:00,21.2,19.0,29.82,NNE,30,0.0,0.0,91,0.00,,,0.00,0.0,WeatherDisplay:10.37,2013-01-16 03:33:00,
2013-01-16 04:38:00,21.1,18.9,29.82,NNE,30,0.0,0.0,91,0.00,,,0.00,0.0,WeatherDisplay:10.37,2013-01-16 03:38:00,
2013-01-16 04:43:00,21.0,18.8,29.82,NNE,30,0.0,0.0,91,0.00,,,0.00,0.0,WeatherDisplay:10.37,2013-01-16 03:43:00,
2013-01-16 04:48:00,20.8,18.3,29.82,NNE,30,0.0,0.0,90,0.00,,,0.00,0.0,WeatherDisplay:10.37,2013-01-16 03:48:00,
2013-01-16 04:53:00,20.5,18.0,29.82,NNE,30,0.0,0.0,90,0.00,,,0.00,0.0,WeatherDisplay:10.37,2013-01-16 03:53:00,
2013-01-16 04:58:00,20.3,17.8,29.82,NNE,30,0.0,0.0,90,0.00,,,0.00,0.0,WeatherDisplay:10.37,2013-01-16 03:58:00,
2013-01-16 05:03:00,20.1,17.9,29.81,NNE,30,0.0,0.0,91,0.00,,,0.00,0.0,WeatherDisplay:10.37,2013-01-16 04:03:00,
2013-01-16 05:08:00,20.0,17.8,29.81,NNE,30,0.0,0.0,91,0.00,,,0.00,0.0,WeatherDisplay:10.37,2013-01-16 04:08:00,
2013-01-16 05:13:00,20.0,17.8,29.81,NNE,30,0.0,0.0,91,0.00,,,0.00,0.0,WeatherDisplay:10.37,2013-01-16 04:13:00,
2013-01-16 05:18:00,20.0,17.8,29.81,NNE,30,0.0,0.0,91,0.00,,,0.00,0.0,WeatherDisplay:10.37,2013-01-16 04:18:00,
2013-01-16 05:23:00,20.2,18.2,29.81,NNE,30,0.0,0.0,92,0.00,,,0.00,0.0,WeatherDisplay:10.37,2013-01-16 04:23:00,
2013-01-16 05:28:00,20.4,18.4,29.81,NNE,30,0.0,0.0,92,0.00,,,0.00,0.0,WeatherDisplay:10.37,2013-01-16 04:28:00,
2013-01-16 05:33:00,20.6,18.6,29.81,NNE,30,0.0,0.0,92,0.00,,,0.00,0.0,WeatherDisplay:10.37,2013-01-16 04:33:00,
2013-01-16 05:38:00,20.6,18.6,29.81,NNE,30,0.0,0.0,92,0.00,,,0.00,0.0,WeatherDisplay:10.37,2013-01-16 04:38:00,
2013-01-16 05:43:00,20.8,18.8,29.81,NNE,30,0.0,0.0,92,0.00,,,0.00,0.0,WeatherDisplay:10.37,2013-01-16 04:43:00,
2013-01-16 05:48:00,20.8,18.8,29.81,NNE,30,0.0,0.0,92,0.00,,,0.00,0.0,WeatherDisplay:10.37,2013-01-16 04:48:00,
2013-01-16 05:53:00,20.9,18.9,29.81,NNE,30,0.0,0.0,92,0.00,,,0.00,0.0,WeatherDisplay:10.37,2013-01-16 04:53:00,
2013-01-16 05:58:00,20.9,18.9,29.81,NNE,30,0.0,0.0,92,0.00,,,0.00,0.0,WeatherDisplay:10.37,2013-01-16 04:58:00,
2013-01-16 06:01:00,20.9,18.9,29.81,NNE,30,0.0,0.0,92,0.00,,,0.00,0.0,WeatherDisplay:10.37,2013-01-16 05:01:00,
2013-01-16 06:02:00,20.8,18.8,29.81,NNE,30,0.0,0.0,92,0.00,,,0.00,0.0,WeatherDisplay:10.37,2013-01-16 05:02:00,
2013-01-16 06:03:00,20.8,18.8,29.81,NNE,30,0.0,0.0,92,0.00,,,0.00,0.0,WeatherDisplay:10.37,2013-01-16 05:03:00,
2013-01-16 06:08:00,20.6,18.6,29.81,NNE,30,0.0,0.0,92,0.00,,,0.00,0.0,WeatherDisplay:10.37,2013-01-16 05:08:00,
2013-01-16 06:13:00,20.5,18.5,29.81,NNE,30,0.0,0.0,92,0.00,,,0.00,0.0,WeatherDisplay:10.37,2013-01-16 05:13:00,
2013-01-16 06:18:00,20.4,18.4,29.81,NNE,30,0.0,0.0,92,0.00,,,0.00,0.0,WeatherDisplay:10.37,2013-01-16 05:18:00,
2013-01-16 06:23:00,20.2,18.2,29.81,NNE,30,0.0,0.0,92,0.00,,,0.00,0.0,WeatherDisplay:10.37,2013-01-16 05:23:00,
2013-01-16 06:28:00,20.1,18.1,29.80,NNE,30,0.0,0.0,92,0.00,,,0.00,0.0,WeatherDisplay:10.37,2013-01-16 05:28:00,
2013-01-16 06:33:00,20.2,18.2,29.80,NNE,30,0.0,0.0,92,0.00,,,0.00,0.0,WeatherDisplay:10.37,2013-01-16 05:33:00,
2013-01-16 06:38:00,20.2,18.2,29.80,NNE,30,0.0,0.0,92,0.00,,,0.00,0.0,WeatherDisplay:10.37,2013-01-16 05:38:00,
2013-01-16 06:43:00,20.2,18.5,29.80,NNE,30,0.0,0.0,93,0.00,,,0.00,0.0,WeatherDisplay:10.37,2013-01-16 05:43:00,
2013-01-16 06:48:00,20.0,18.0,29.80,NNE,30,0.0,0.0,92,0.00,,,0.00,0.0,WeatherDisplay:10.37,2013-01-16 05:48:00,
2013-01-16 06:53:00,19.7,17.7,29.81,NNE,30,0.0,0.0,92,0.00,,,0.00,0.0,WeatherDisplay:10.37,2013-01-16 05:53:00,
2013-01-16 06:58:00,19.2,17.2,29.81,NNE,30,0.0,0.0,92,0.00,,,0.00,0.0,WeatherDisplay:10.37,2013-01-16 05:58:00,
2013-01-16 07:03:00,18.4,16.2,29.81,NNE,30,0.0,0.0,91,0.00,,,0.00,0.0,WeatherDisplay:10.37,2013-01-16 06:03:00,
2013-01-16 07:08:00,17.7,15.5,29.81,NNE,30,0.0,0.0,91,0.00,,,0.00,0.0,WeatherDisplay:10.37,2013-01-16 06:08:00,
2013-01-16 07:13:00,17.2,15.0,29.81,NNE,30,0.0,0.0,91,0.00,,,0.00,0.0,WeatherDisplay:10.37,2013-01-16 06:13:00,
2013-01-16 07:18:00,17.0,14.8,29.81,NNE,30,0.0,0.0,91,0.00,,,0.00,0.0,WeatherDisplay:10.37,2013-01-16 06:18:00,
2013-01-16 07:23:00,17.0,15.1,29.81,NNE,30,0.0,0.0,92,0.00,,,0.00,0.0,WeatherDisplay:10.37,2013-01-16 06:23:00,
2013-01-16 07:29:00,17.2,15.3,29.81,NNE,30,0.0,0.0,92,0.00,,,0.00,0.0,WeatherDisplay:10.37,2013-01-16 06:29:00,
2013-01-16 07:34:00,17.4,15.7,29.81,NNE,30,0.0,0.0,93,0.00,,,0.00,0.0,WeatherDisplay:10.37,2013-01-16 06:34:00,
2013-01-16 07:39:00,17.8,16.1,29.81,NNE,30,0.0,0.0,93,0.00,,,0.00,0.0,WeatherDisplay:10.37,2013-01-16 06:39:00,
2013-01-16 07:44:00,18.1,16.4,29.81,NNE,30,0.0,0.0,93,0.00,,,0.00,0.0,WeatherDisplay:10.37,2013-01-16 06:44:00,
2013-01-16 07:49:00,18.3,16.6,29.82,NNE,30,0.0,0.0,93,0.00,CLR,,0.00,0.0,WeatherDisplay:10.37,2013-01-16 06:49:00,
2013-01-16 07:54:00,18.3,16.6,29.81,NNE,30,0.0,0.0,93,0.00,CLR,,0.00,0.0,WeatherDisplay:10.37,2013-01-16 06:54:00,
2013-01-16 07:59:00,18.3,16.6,29.82,NNE,30,0.0,0.0,93,0.00,CLR,,0.00,0.0,WeatherDisplay:10.37,2013-01-16 06:59:00,
2013-01-16 08:04:00,18.4,16.7,29.82,NNE,30,0.0,0.0,93,0.00,CLR,,0.00,0.0,WeatherDisplay:10.37,2013-01-16 07:04:00,
2013-01-16 08:09:00,18.4,16.7,29.82,NNE,30,0.0,0.0,93,0.00,CLR,,0.00,0.0,WeatherDisplay:10.37,2013-01-16 07:09:00,
2013-01-16 08:14:00,18.4,16.7,29.82,NNE,30,0.0,0.0,93,0.00,CLR,,0.00,0.0,WeatherDisplay:10.37,2013-01-16 07:14:00,
2013-01-16 08:19:00,18.7,17.0,29.82,NNE,30,0.0,0.0,93,0.00,,,0.00,0.0,WeatherDisplay:10.37,2013-01-16 07:19:00,
2013-01-16 08:24:00,19.0,17.3,29.82,NNE,30,0.0,0.0,93,0.00,,,0.00,0.0,WeatherDisplay:10.37,2013-01-16 07:24:00,
2013-01-16 08:29:00,19.1,17.4,29.82,NNE,30,0.0,0.0,93,0.00,,,0.00,0.0,WeatherDisplay:10.37,2013-01-16 07:29:00,
2013-01-16 08:34:00,19.1,17.4,29.83,NNE,30,0.0,0.0,93,0.00,,,0.00,0.0,WeatherDisplay:10.37,2013-01-16 07:34:00,
2013-01-16 08:39:00,19.1,17.4,29.83,North,10,0.0,0.0,93,0.00,,,0.00,0.0,WeatherDisplay:10.37,2013-01-16 07:39:00,
2013-01-16 08:44:00,18.7,17.0,29.83,North,10,0.0,0.0,93,0.00,,,0.00,5.0,WeatherDisplay:10.37,2013-01-16 07:44:00,
2013-01-16 08:49:00,18.4,16.4,29.83,North,10,0.0,0.0,92,0.00,,,0.00,7.0,WeatherDisplay:10.37,2013-01-16 07:49:00,
2013-01-16 08:54:00,18.1,16.1,29.83,North,10,0.0,0.0,92,0.00,,,0.00,9.0,WeatherDisplay:10.37,2013-01-16 07:54:00,
2013-01-16 08:59:00,17.9,16.0,29.84,WSW,255,0.0,1.1,92,0.00,,,0.00,12.0,WeatherDisplay:10.37,2013-01-16 07:59:00,
2013-01-16 09:04:00,17.7,16.0,29.84,WSW,255,0.0,1.1,93,0.00,,,0.00,14.0,WeatherDisplay:10.37,2013-01-16 08:04:00,
2013-01-16 09:09:00,17.6,15.7,29.84,WSW,255,0.0,0.0,92,0.00,,,0.00,19.0,WeatherDisplay:10.37,2013-01-16 08:09:00,
2013-01-16 09:14:00,17.7,16.0,29.84,West,266,0.0,0.0,93,0.00,,,0.00,21.0,WeatherDisplay:10.37,2013-01-16 08:14:00,
2013-01-16 09:19:00,17.7,16.0,29.84,West,266,0.0,0.0,93,0.00,CLR,,0.00,26.0,WeatherDisplay:10.37,2013-01-16 08:19:00,
2013-01-16 09:24:00,17.8,16.1,29.84,West,266,0.0,0.0,93,0.00,CLR,,0.00,33.0,WeatherDisplay:10.37,2013-01-16 08:24:00,
2013-01-16 09:29:00,17.7,16.0,29.84,WSW,257,0.0,0.0,93,0.00,CLR,,0.00,39.0,WeatherDisplay:10.37,2013-01-16 08:29:00,
2013-01-16 09:34:00,17.8,16.1,29.84,WSW,258,0.0,0.0,93,0.00,CLR,,0.00,47.0,WeatherDisplay:10.37,2013-01-16 08:34:00,
2013-01-16 09:39:00,18.0,16.3,29.84,WSW,257,0.0,0.0,93,0.00,CLR,,0.00,54.0,WeatherDisplay:10.37,2013-01-16 08:39:00,
2013-01-16 09:44:00,18.3,16.6,29.84,WSW,257,0.0,0.0,93,0.00,CLR,,0.00,63.0,WeatherDisplay:10.37,2013-01-16 08:44:00,
2013-01-16 09:49:00,18.5,16.8,29.84,WSW,257,0.0,0.0,93,0.00,BKN,,0.00,63.0,WeatherDisplay:10.37,2013-01-16 08:49:00,
2013-01-16 09:54:00,18.7,17.2,29.85,West,273,0.0,0.0,94,0.00,BKN,,0.00,77.0,WeatherDisplay:10.37,2013-01-16 08:54:00,
2013-01-16 09:59:00,18.9,17.4,29.85,West,273,0.0,0.0,94,0.00,SCT,,0.00,88.0,WeatherDisplay:10.37,2013-01-16 08:59:00,
2013-01-16 10:04:00,19.1,17.4,29.84,West,273,0.0,0.0,93,0.00,SCT,,0.00,97.0,WeatherDisplay:10.37,2013-01-16 09:04:00,
2013-01-16 10:09:00,19.5,18.0,29.84,West,273,0.0,0.0,94,0.00,SCT,,0.00,105.0,WeatherDisplay:10.37,2013-01-16 09:09:00,
2013-01-16 10:14:00,19.9,18.4,29.85,West,273,0.0,0.0,94,0.00,SCT,,0.00,120.0,WeatherDisplay:10.37,2013-01-16 09:14:00,
2013-01-16 10:19:00,20.3,18.8,29.84,West,273,0.0,0.0,94,0.00,SCT,,0.00,130.0,WeatherDisplay:10.37,2013-01-16 09:19:00,
2013-01-16 10:24:00,20.8,19.3,29.85,West,273,0.0,0.0,94,0.00,SCT,,0.00,141.0,WeatherDisplay:10.37,2013-01-16 09:24:00,
2013-01-16 10:29:00,21.2,19.7,29.85,West,273,0.0,0.0,94,0.00,SCT,,0.00,149.0,WeatherDisplay:10.37,2013-01-16 09:29:00,
2013-01-16 10:34:00,21.3,19.8,29.84,West,273,0.0,0.0,94,0.00,SCT,,0.00,155.0,WeatherDisplay:10.37,2013-01-16 09:34:00,
2013-01-16 10:39:00,21.4,19.9,29.84,West,273,0.0,0.0,94,0.00,SCT,,0.00,165.0,WeatherDisplay:10.37,2013-01-16 09:39:00,
2013-01-16 10:44:00,21.5,20.0,29.84,NW,305,0.0,0.0,94,0.00,SCT,,0.00,178.0,WeatherDisplay:10.37,2013-01-16 09:44:00,
2013-01-16 10:49:00,21.4,19.9,29.84,NW,305,0.0,0.0,94,0.00,SCT,,0.00,188.0,WeatherDisplay:10.37,2013-01-16 09:49:00,
2013-01-16 10:54:00,21.5,20.0,29.84,NW,305,0.0,0.0,94,0.00,SCT,,0.00,200.0,WeatherDisplay:10.37,2013-01-16 09:54:00,
2013-01-16 10:59:00,21.8,20.3,29.85,NW,305,0.0,0.0,94,0.00,SCT,,0.00,211.0,WeatherDisplay:10.37,2013-01-16 09:59:00,
2013-01-16 11:04:00,22.2,20.7,29.85,NW,305,0.0,0.0,94,0.00,SCT,,0.00,216.0,WeatherDisplay:10.37,2013-01-16 10:04:00,
2013-01-16 11:09:00,22.6,21.1,29.85,NW,305,0.0,0.0,94,0.00,SCT,,0.00,225.0,WeatherDisplay:10.37,2013-01-16 10:09:00,
2013-01-16 11:14:00,22.7,21.2,29.85,NW,305,0.0,0.0,94,0.00,FEW,,0.00,230.0,WeatherDisplay:10.37,2013-01-16 10:14:00,
2013-01-16 11:19:00,23.2,21.7,29.85,NW,305,0.0,0.0,94,0.00,FEW,,0.00,243.0,WeatherDisplay:10.37,2013-01-16 10:19:00,
2013-01-16 11:24:00,24.2,23.0,29.85,North,351,0.9,3.5,95,0.00,FEW,,0.00,260.0,WeatherDisplay:10.37,2013-01-16 10:24:00,
2013-01-16 11:29:00,25.4,24.1,29.85,North,351,0.0,0.0,95,0.00,FEW,,0.00,262.0,WeatherDisplay:10.37,2013-01-16 10:29:00,
2013-01-16 11:34:00,26.1,24.8,29.85,North,1,0.0,0.0,95,0.00,FEW,,0.00,260.0,WeatherDisplay:10.37,2013-01-16 10:34:00,
2013-01-16 11:39:00,26.7,25.4,29.85,ENE,70,2.1,4.6,95,0.00,FEW,,0.00,260.0,WeatherDisplay:10.37,2013-01-16 10:39:00,
2013-01-16 11:44:00,27.3,26.0,29.85,ENE,70,1.1,2.3,95,0.00,FEW,,0.00,262.0,WeatherDisplay:10.37,2013-01-16 10:44:00,
2013-01-16 11:49:00,27.6,26.1,29.85,ENE,70,0.0,2.3,94,0.00,FEW,,0.00,264.0,WeatherDisplay:10.37,2013-01-16 10:49:00,
2013-01-16 11:54:00,28.0,26.5,29.85,ENE,70,3.2,4.6,94,0.00,SCT,,0.00,262.0,WeatherDisplay:10.37,2013-01-16 10:54:00,
2013-01-16 11:59:00,28.3,26.8,29.85,ENE,78,3.2,5.8,94,0.00,SCT,,0.00,255.0,WeatherDisplay:10.37,2013-01-16 10:59:00,
2013-01-16 12:04:00,28.5,26.7,29.85,East,82,3.5,4.6,93,0.00,SCT,,0.00,258.0,WeatherDisplay:10.37,2013-01-16 11:04:00,
2013-01-16 12:09:00,28.7,26.9,29.85,East,82,0.0,3.5,93,0.01,RA,,0.01,264.0,WeatherDisplay:10.37,2013-01-16 11:09:00,
2013-01-16 12:14:00,28.5,26.2,29.85,NE,53,4.1,6.9,91,0.01,RA,,0.01,269.0,WeatherDisplay:10.37,2013-01-16 11:14:00,
2013-01-16 12:19:00,28.6,25.8,29.85,NE,53,1.7,4.6,89,0.01,RA,,0.01,276.0,WeatherDisplay:10.37,2013-01-16 11:19:00,
2013-01-16 12:24:00,28.9,25.5,29.85,NE,53,1.8,3.5,87,0.01,RA,,0.01,281.0,WeatherDisplay:10.37,2013-01-16 11:24:00,
2013-01-16 12:29:00,29.1,25.1,29.85,NE,53,2.1,4.6,85,0.02,RA,,0.02,287.0,WeatherDisplay:10.37,2013-01-16 11:29:00,
2013-01-16 12:34:00,29.4,24.3,29.84,NE,54,2.5,6.9,81,0.02,RA,,0.02,288.0,WeatherDisplay:10.37,2013-01-16 11:34:00,
2013-01-16 12:39:00,29.6,23.3,29.84,NE,56,2.8,5.8,77,0.02,RA,,0.02,290.0,WeatherDisplay:10.37,2013-01-16 11:39:00,
2013-01-16 12:44:00,29.9,23.5,29.84,NE,56,3.4,5.0,77,0.02,RA,,0.02,290.0,WeatherDisplay:10.37,2013-01-16 11:44:00,
2013-01-16 12:49:00,30.1,21.8,29.84,NE,47,2.6,10.0,71,0.02,RA,,0.02,294.0,WeatherDisplay:10.37,2013-01-16 11:49:00,
2013-01-16 12:54:00,30.3,21.0,29.84,ENE,61,3.6,6.0,68,0.02,RA,,0.02,292.0,WeatherDisplay:10.37,2013-01-16 11:54:00,
2013-01-16 12:59:00,30.5,20.5,29.84,ENE,64,4.8,8.1,66,0.02,RA,,0.02,292.0,WeatherDisplay:10.37,2013-01-16 11:59:00,
2013-01-16 13:04:00,30.7,20.3,29.84,ENE,70,2.7,4.6,65,0.03,RA,,0.03,292.0,WeatherDisplay:10.37,2013-01-16 12:04:00,
2013-01-16 13:09:00,30.8,19.7,29.84,ENE,57,5.5,7.0,63,0.03,RA,,0.03,255.0,WeatherDisplay:10.37,2013-01-16 12:09:00,
2013-01-16 13:14:00,30.9,19.4,29.84,ENE,58,2.5,4.6,62,0.02,RA,,0.03,287.0,WeatherDisplay:10.37,2013-01-16 12:14:00,
2013-01-16 13:19:00,31.0,19.5,29.84,ENE,69,4.3,4.6,62,0.02,RA,,0.03,290.0,WeatherDisplay:10.37,2013-01-16 12:19:00,
2013-01-16 13:24:00,31.0,19.5,29.84,ENE,69,3.2,5.8,62,0.02,RA,,0.03,288.0,WeatherDisplay:10.37,2013-01-16 12:24:00,
2013-01-16 13:29:00,31.0,19.5,29.84,East,82,4.4,5.8,62,0.02,FEW,,0.03,283.0,WeatherDisplay:10.37,2013-01-16 12:29:00,
2013-01-16 13:34:00,31.1,20.7,29.84,East,82,2.5,5.0,65,0.02,FEW,,0.03,279.0,WeatherDisplay:10.37,2013-01-16 12:34:00,
2013-01-16 13:39:00,31.0,21.3,29.84,East,83,2.9,4.6,67,0.02,RA,,0.04,279.0,WeatherDisplay:10.37,2013-01-16 12:39:00,
2013-01-16 13:44:00,31.0,21.7,29.84,East,85,0.0,2.3,68,0.02,RA,,0.04,272.0,WeatherDisplay:10.37,2013-01-16 12:44:00,
2013-01-16 13:49:00,31.0,21.3,29.84,East,92,1.6,4.6,67,0.02,RA,,0.04,269.0,WeatherDisplay:10.37,2013-01-16 12:49:00,
2013-01-16 13:54:00,31.0,21.7,29.84,East,88,4.9,5.8,68,0.02,RA,,0.04,265.0,WeatherDisplay:10.37,2013-01-16 12:54:00,
2013-01-16 13:59:00,31.0,21.3,29.84,ENE,73,3.5,4.6,67,0.02,RA,,0.04,258.0,WeatherDisplay:10.37,2013-01-16 12:59:00,
2013-01-16 14:04:00,31.1,21.0,29.84,East,82,0.8,5.8,66,0.02,RA,,0.05,255.0,WeatherDisplay:10.37,2013-01-16 13:04:00,
2013-01-16 14:09:00,31.2,21.1,29.84,East,82,0.0,2.3,66,0.02,RA,,0.05,248.0,WeatherDisplay:10.37,2013-01-16 13:09:00,
2013-01-16 14:14:00,31.2,21.1,29.84,NE,56,4.2,5.0,66,0.02,RA,,0.05,241.0,WeatherDisplay:10.37,2013-01-16 13:14:00,
2013-01-16 14:19:00,31.0,20.9,29.84,NE,55,1.8,3.5,66,0.02,RA,,0.05,232.0,WeatherDisplay:10.37,2013-01-16 13:19:00,
2013-01-16 14:24:00,31.0,20.9,29.84,NE,56,1.0,4.6,66,0.02,RA,,0.06,229.0,WeatherDisplay:10.37,2013-01-16 13:24:00,
2013-01-16 14:29:00,31.1,21.4,29.85,NE,51,2.6,4.6,67,0.02,RA,,0.06,223.0,WeatherDisplay:10.37,2013-01-16 13:29:00,
2013-01-16 14:34:00,31.0,20.9,29.85,NE,46,2.6,5.8,66,0.02,RA,,0.06,213.0,WeatherDisplay:10.37,2013-01-16 13:34:00,
2013-01-16 14:39:00,31.0,21.3,29.85,NE,45,4.9,5.0,67,0.02,RA,,0.06,206.0,WeatherDisplay:10.37,2013-01-16 13:39:00,
2013-01-16 14:44:00,30.9,20.8,29.85,NE,45,3.5,5.8,66,0.02,RA,,0.06,200.0,WeatherDisplay:10.37,2013-01-16 13:44:00,
2013-01-16 14:49:00,30.8,20.4,29.85,ENE,58,5.2,11.5,65,0.02,RA,,0.06,202.0,WeatherDisplay:10.37,2013-01-16 13:49:00,
2013-01-16 14:54:00,30.7,20.7,29.85,NE,38,2.1,4.6,66,0.02,SCT,,0.06,204.0,WeatherDisplay:10.37,2013-01-16 13:54:00,
2013-01-16 14:59:00,30.7,20.7,29.86,NE,39,3.2,4.6,66,0.02,RA,,0.06,186.0,WeatherDisplay:10.37,2013-01-16 13:59:00,
2013-01-16 15:04:00,30.7,20.7,29.85,ENE,59,1.4,6.9,66,0.02,RA,,0.06,172.0,WeatherDisplay:10.37,2013-01-16 14:04:00,
2013-01-16 15:09:00,30.8,20.8,29.86,ENE,58,4.3,7.0,66,0.02,RA,,0.06,165.0,WeatherDisplay:10.37,2013-01-16 14:09:00,
2013-01-16 15:14:00,30.8,20.8,29.86,ENE,62,1.2,4.6,66,0.02,RA,,0.06,153.0,WeatherDisplay:10.37,2013-01-16 14:14:00,
2013-01-16 15:19:00,30.8,21.1,29.86,ENE,62,4.1,4.6,67,0.02,RA,,0.06,153.0,WeatherDisplay:10.37,2013-01-16 14:19:00,
2013-01-16 15:24:00,30.9,21.6,29.87,ENE,62,0.0,2.3,68,0.02,SCT,,0.06,149.0,WeatherDisplay:10.37,2013-01-16 14:24:00,
2013-01-16 15:29:00,31.1,21.7,29.87,ENE,62,0.2,3.5,68,0.02,RA,,0.07,155.0,WeatherDisplay:10.37,2013-01-16 14:29:00,
2013-01-16 15:34:00,31.3,21.9,29.87,ENE,62,3.2,4.0,68,0.02,RA,,0.07,149.0,WeatherDisplay:10.37,2013-01-16 14:34:00,
2013-01-16 15:39:00,31.4,22.0,29.87,ENE,62,0.6,4.6,68,0.02,RA,,0.07,128.0,WeatherDisplay:10.37,2013-01-16 14:39:00,
2013-01-16 15:44:00,31.4,22.4,29.87,ENE,62,3.0,3.5,69,0.02,RA,,0.07,104.0,WeatherDisplay:10.37,2013-01-16 14:44:00,
2013-01-16 15:49:00,31.4,22.0,29.88,ENE,62,3.5,4.6,68,0.02,RA,,0.07,84.0,WeatherDisplay:10.37,2013-01-16 14:49:00,
2013-01-16 15:54:00,31.3,21.9,29.88,ENE,57,4.8,8.0,68,0.02,FEW,,0.07,81.0,WeatherDisplay:10.37,2013-01-16 14:54:00,
2013-01-16 15:59:00,31.2,22.2,29.88,ENE,57,3.5,4.6,69,0.01,FEW,,0.07,67.0,WeatherDisplay:10.37,2013-01-16 14:59:00,
2013-01-16 16:04:00,31.2,22.2,29.88,ENE,57,0.0,0.0,69,0.01,FEW,,0.07,56.0,WeatherDisplay:10.37,2013-01-16 15:04:00,
2013-01-16 16:09:00,31.2,22.5,29.88,ENE,57,0.8,4.0,70,0.01,FEW,,0.07,49.0,WeatherDisplay:10.37,2013-01-16 15:09:00,
2013-01-16 16:14:00,31.0,22.3,29.88,ENE,57,3.8,4.6,70,0.01,BKN,,0.07,40.0,WeatherDisplay:10.37,2013-01-16 15:14:00,
2013-01-16 16:19:00,31.0,22.3,29.88,ENE,57,0.0,0.0,70,0.01,BKN,,0.07,32.0,WeatherDisplay:10.37,2013-01-16 15:19:00,
2013-01-16 16:24:00,30.9,22.6,29.88,ENE,57,0.0,1.1,71,0.01,BKN,,0.07,28.0,WeatherDisplay:10.37,2013-01-16 15:24:00,
2013-01-16 16:29:00,30.7,22.7,29.89,ENE,57,0.0,0.0,72,0.00,BKN,,0.07,25.0,WeatherDisplay:10.37,2013-01-16 15:29:00,
2013-01-16 16:34:00,30.6,22.6,29.89,ENE,57,1.5,3.5,72,0.00,BKN,,0.07,21.0,WeatherDisplay:10.37,2013-01-16 15:34:00,
2013-01-16 16:39:00,30.5,22.9,29.89,ENE,57,0.1,3.5,73,0.00,BKN,,0.07,19.0,WeatherDisplay:10.37,2013-01-16 15:39:00,
2013-01-16 16:44:00,30.3,22.7,29.89,NE,45,1.4,3.5,73,0.00,BKN,,0.07,16.0,WeatherDisplay:10.37,2013-01-16 15:44:00,
2013-01-16 16:49:00,30.2,22.6,29.89,NE,45,0.0,0.0,73,0.00,BKN,,0.07,12.0,WeatherDisplay:10.37,2013-01-16 15:49:00,
2013-01-16 16:54:00,30.1,22.5,29.89,NE,45,0.2,2.0,73,0.00,BKN,,0.07,9.0,WeatherDisplay:10.37,2013-01-16 15:54:00,
2013-01-16 16:59:00,29.9,22.6,29.89,NE,45,0.2,3.5,74,0.00,BKN,,0.07,7.0,WeatherDisplay:10.37,2013-01-16 15:59:00,
2013-01-16 17:04:00,29.8,22.5,29.89,NE,45,1.0,3.0,74,0.00,BKN,,0.07,0.0,WeatherDisplay:10.37,2013-01-16 16:04:00,
2013-01-16 17:09:00,29.7,22.4,29.90,NE,45,0.0,0.0,74,0.00,BKN,,0.07,0.0,WeatherDisplay:10.37,2013-01-16 16:09:00,
2013-01-16 17:14:00,29.6,22.6,29.90,NE,45,0.0,0.0,75,0.00,BKN,,0.07,0.0,WeatherDisplay:10.37,2013-01-16 16:14:00,
2013-01-16 17:19:00,29.5,22.5,29.90,NE,45,0.4,3.5,75,0.00,BKN,,0.07,0.0,WeatherDisplay:10.37,2013-01-16 16:19:00,
2013-01-16 17:24:00,29.4,22.7,29.91,NE,45,1.3,3.5,76,0.00,BKN,,0.07,0.0,WeatherDisplay:10.37,2013-01-16 16:24:00,
2013-01-16 17:29:00,29.4,22.4,29.91,NE,45,0.7,4.6,75,0.00,BKN,,0.07,0.0,WeatherDisplay:10.37,2013-01-16 16:29:00,
2013-01-16 17:34:00,29.2,22.2,29.91,NE,45,2.6,3.5,75,0.00,BKN,,0.07,0.0,WeatherDisplay:10.37,2013-01-16 16:34:00,
2013-01-16 17:39:00,29.2,22.2,29.91,NE,45,2.3,4.6,75,0.00,BKN,,0.07,0.0,WeatherDisplay:10.37,2013-01-16 16:39:00,
2013-01-16 17:44:00,29.1,22.1,29.91,NE,45,2.9,4.6,75,0.00,BKN,,0.07,0.0,WeatherDisplay:10.37,2013-01-16 16:44:00,
2013-01-16 17:49:00,29.1,22.1,29.91,NE,45,1.2,4.6,75,0.00,BKN,,0.07,0.0,WeatherDisplay:10.37,2013-01-16 16:49:00,
2013-01-16 17:54:00,29.0,21.7,29.91,NE,46,2.9,5.8,74,0.00,BKN,,0.07,0.0,WeatherDisplay:10.37,2013-01-16 16:54:00,
2013-01-16 17:59:00,28.9,21.6,29.91,NE,46,3.1,5.0,74,0.00,BKN,,0.07,0.0,WeatherDisplay:10.37,2013-01-16 16:59:00,
2013-01-16 18:04:00,28.9,21.6,29.91,NE,46,2.7,6.9,74,0.00,BKN,,0.07,0.0,WeatherDisplay:10.37,2013-01-16 17:04:00,
2013-01-16 18:09:00,28.7,21.4,29.92,NE,46,2.4,4.6,74,0.00,BKN,,0.07,0.0,WeatherDisplay:10.37,2013-01-16 17:09:00,
2013-01-16 18:14:00,28.6,21.7,29.92,NE,42,2.2,4.6,75,0.00,BKN,,0.07,0.0,WeatherDisplay:10.37,2013-01-16 17:14:00,
2013-01-16 18:19:00,28.6,21.7,29.92,NE,42,2.5,4.6,75,0.00,BKN,,0.07,0.0,WeatherDisplay:10.37,2013-01-16 17:19:00,
2013-01-16 18:24:00,28.5,21.6,29.92,NE,42,0.0,0.0,75,0.00,BKN,,0.07,0.0,WeatherDisplay:10.37,2013-01-16 17:24:00,
2013-01-16 18:29:00,28.4,21.5,29.92,NE,42,1.5,3.5,75,0.00,BKN,,0.07,0.0,WeatherDisplay:10.37,2013-01-16 17:29:00,
2013-01-16 18:34:00,28.3,21.4,29.92,NE,42,0.9,3.5,75,0.00,BKN,,0.07,0.0,WeatherDisplay:10.37,2013-01-16 17:34:00,
2013-01-16 18:39:00,28.2,21.6,29.92,NE,42,0.7,3.5,76,0.00,BKN,,0.07,0.0,WeatherDisplay:10.37,2013-01-16 17:39:00,
2013-01-16 18:44:00,28.0,21.4,29.92,NE,42,0.0,0.0,76,0.00,BKN,,0.07,0.0,WeatherDisplay:10.37,2013-01-16 17:44:00,
2013-01-16 18:49:00,27.8,21.2,29.92,NE,42,1.2,2.3,76,0.00,BKN,,0.07,0.0,WeatherDisplay:10.37,2013-01-16 17:49:00,
2013-01-16 18:54:00,27.5,21.2,29.92,NE,42,0.8,2.3,77,0.00,BKN,,0.07,0.0,WeatherDisplay:10.37,2013-01-16 17:54:00,
2013-01-16 18:59:00,27.3,21.3,29.92,NE,42,1.0,4.0,78,0.00,BKN,,0.07,0.0,WeatherDisplay:10.37,2013-01-16 17:59:00,
2013-01-16 19:04:00,27.1,21.1,29.93,NE,42,1.8,3.5,78,0.00,BKN,,0.07,0.0,WeatherDisplay:10.37,2013-01-16 18:04:00,
2013-01-16 19:09:00,26.9,21.2,29.93,NE,42,1.7,3.5,79,0.00,BKN,,0.07,0.0,WeatherDisplay:10.37,2013-01-16 18:09:00,
2013-01-16 19:14:00,26.6,20.9,29.93,NE,42,3.2,4.0,79,0.00,BKN,,0.07,0.0,WeatherDisplay:10.37,2013-01-16 18:14:00,
2013-01-16 19:19:00,26.4,21.0,29.93,NE,42,2.0,4.6,80,0.00,BKN,,0.07,0.0,WeatherDisplay:10.37,2013-01-16 18:19:00,
2013-01-16 19:24:00,26.1,20.8,29.94,NE,42,2.5,3.5,80,0.00,BKN,,0.07,0.0,WeatherDisplay:10.37,2013-01-16 18:24:00,
2013-01-16 19:29:00,25.9,20.6,29.94,NE,42,1.7,3.5,80,0.00,BKN,,0.07,0.0,WeatherDisplay:10.37,2013-01-16 18:29:00,
2013-01-16 19:34:00,25.7,20.7,29.94,NE,42,2.0,3.5,81,0.00,BKN,,0.07,0.0,WeatherDisplay:10.37,2013-01-16 18:34:00,
2013-01-16 19:39:00,25.7,20.7,29.94,NE,42,1.0,3.5,81,0.00,BKN,,0.07,0.0,WeatherDisplay:10.37,2013-01-16 18:39:00,
2013-01-16 19:44:00,25.6,20.6,29.94,NE,42,2.3,3.5,81,0.00,BKN,,0.07,0.0,WeatherDisplay:10.37,2013-01-16 18:44:00,
2013-01-16 19:49:00,25.5,20.8,29.94,NE,42,1.2,2.3,82,0.00,BKN,,0.07,0.0,WeatherDisplay:10.37,2013-01-16 18:49:00,
2013-01-16 19:54:00,25.5,20.8,29.94,NE,42,0.0,0.0,82,0.00,BKN,,0.07,0.0,WeatherDisplay:10.37,2013-01-16 18:54:00,
2013-01-16 19:59:00,25.4,20.7,29.94,NE,42,0.0,0.0,82,0.00,BKN,,0.07,0.0,WeatherDisplay:10.37,2013-01-16 18:59:00,
2013-01-16 20:04:00,25.3,20.6,29.94,NE,42,0.0,0.0,82,0.00,BKN,,0.07,0.0,WeatherDisplay:10.37,2013-01-16 19:04:00,
2013-01-16 20:09:00,25.3,20.6,29.94,NE,42,0.0,0.0,82,0.00,BKN,,0.07,0.0,WeatherDisplay:10.37,2013-01-16 19:09:00,
2013-01-16 20:14:00,25.2,20.7,29.94,NE,42,0.0,0.0,83,0.00,SCT,,0.07,0.0,WeatherDisplay:10.37,2013-01-16 19:14:00,
2013-01-16 20:19:00,25.0,20.5,29.94,NE,42,0.0,0.0,83,0.00,SCT,,0.07,0.0,WeatherDisplay:10.37,2013-01-16 19:19:00,
2013-01-16 20:24:00,24.9,20.4,29.94,NE,42,0.0,0.0,83,0.00,SCT,,0.07,0.0,WeatherDisplay:10.37,2013-01-16 19:24:00,
2013-01-16 20:29:00,24.8,20.4,29.94,NE,42,0.0,0.0,83,0.00,SCT,,0.07,0.0,WeatherDisplay:10.37,2013-01-16 19:29:00,
2013-01-16 20:34:00,24.6,20.2,29.94,NE,42,0.0,0.0,83,0.00,SCT,,0.07,0.0,WeatherDisplay:10.37,2013-01-16 19:34:00,
2013-01-16 20:39:00,24.4,20.2,29.95,NE,42,1.5,3.5,84,0.00,SCT,,0.07,0.0,WeatherDisplay:10.37,2013-01-16 19:39:00,
2013-01-16 20:44:00,24.2,20.0,29.95,NE,42,0.2,1.1,84,0.00,SCT,,0.07,0.0,WeatherDisplay:10.37,2013-01-16 19:44:00,
2013-01-16 20:49:00,24.1,20.2,29.95,NE,42,0.0,0.0,85,0.00,SCT,,0.07,0.0,WeatherDisplay:10.37,2013-01-16 19:49:00,
2013-01-16 20:54:00,24.0,20.1,29.95,NE,42,0.0,0.0,85,0.00,SCT,,0.07,0.0,WeatherDisplay:10.37,2013-01-16 19:54:00,
2013-01-16 20:59:00,23.8,19.9,29.95,NE,42,0.0,0.0,85,0.00,SCT,,0.07,0.0,WeatherDisplay:10.37,2013-01-16 19:59:00,
2013-01-16 21:04:00,23.6,19.7,29.95,NE,42,0.0,0.0,85,0.00,SCT,,0.07,0.0,WeatherDisplay:10.37,2013-01-16 20:04:00,
2013-01-16 21:09:00,23.3,19.4,29.95,NE,42,0.0,0.0,85,0.00,SCT,,0.07,0.0,WeatherDisplay:10.37,2013-01-16 20:09:00,
2013-01-16 21:14:00,23.1,19.2,29.95,NE,42,0.0,0.0,85,0.00,SCT,,0.07,0.0,WeatherDisplay:10.37,2013-01-16 20:14:00,
2013-01-16 21:19:00,22.9,19.3,29.95,NE,42,0.0,0.0,86,0.00,SCT,,0.07,0.0,WeatherDisplay:10.37,2013-01-16 20:19:00,
2013-01-16 21:24:00,22.8,19.2,29.96,NE,42,0.0,0.0,86,0.00,SCT,,0.07,0.0,WeatherDisplay:10.37,2013-01-16 20:24:00,
2013-01-16 21:29:00,22.6,19.0,29.95,NE,42,0.0,0.0,86,0.00,SCT,,0.07,0.0,WeatherDisplay:10.37,2013-01-16 20:29:00,
2013-01-16 21:34:00,22.3,18.7,29.96,NE,42,0.0,0.0,86,0.00,SCT,,0.07,0.0,WeatherDisplay:10.37,2013-01-16 20:34:00,
2013-01-16 21:39:00,22.1,18.5,29.96,NE,42,0.0,0.0,86,0.00,SCT,,0.07,0.0,WeatherDisplay:10.37,2013-01-16 20:39:00,
2013-01-16 21:44:00,22.0,18.4,29.96,NE,42,0.0,0.0,86,0.00,BKN,,0.07,0.0,WeatherDisplay:10.37,2013-01-16 20:44:00,
2013-01-16 21:49:00,21.9,18.6,29.96,NE,42,0.0,0.0,87,0.00,BKN,,0.07,0.0,WeatherDisplay:10.37,2013-01-16 20:49:00,
2013-01-16 21:54:00,21.7,18.4,29.96,NE,42,0.0,0.0,87,0.00,BKN,,0.07,0.0,WeatherDisplay:10.37,2013-01-16 20:54:00,
2013-01-16 21:59:00,21.5,18.2,29.96,NE,42,0.0,0.0,87,0.00,BKN,,0.07,0.0,WeatherDisplay:10.37,2013-01-16 20:59:00,
2013-01-16 22:04:00,21.4,18.1,29.96,NE,42,0.0,0.0,87,0.00,BKN,,0.07,0.0,WeatherDisplay:10.37,2013-01-16 21:04:00,
2013-01-16 22:09:00,21.2,17.9,29.96,NE,42,0.0,0.0,87,0.00,BKN,,0.07,0.0,WeatherDisplay:10.37,2013-01-16 21:09:00,
2013-01-16 22:14:00,21.0,17.7,29.96,NE,42,0.0,0.0,87,0.00,BKN,,0.07,0.0,WeatherDisplay:10.37,2013-01-16 21:14:00,
2013-01-16 22:19:00,20.8,17.8,29.96,NE,42,0.0,0.0,88,0.00,BKN,,0.07,0.0,WeatherDisplay:10.37,2013-01-16 21:19:00,
2013-01-16 22:24:00,20.7,17.7,29.96,NE,42,0.0,0.0,88,0.00,BKN,,0.07,0.0,WeatherDisplay:10.37,2013-01-16 21:24:00,
2013-01-16 22:29:00,20.5,17.5,29.97,NE,42,0.0,0.0,88,0.00,BKN,,0.07,0.0,WeatherDisplay:10.37,2013-01-16 21:29:00,
2013-01-16 22:34:00,20.5,17.8,29.97,NE,42,0.0,0.0,89,0.00,BKN,,0.07,0.0,WeatherDisplay:10.37,2013-01-16 21:34:00,
2013-01-16 22:39:00,20.5,17.8,29.97,NE,42,0.0,0.0,89,0.00,BKN,,0.07,0.0,WeatherDisplay:10.37,2013-01-16 21:39:00,
2013-01-16 22:44:00,20.4,17.7,29.97,NE,42,0.0,0.0,89,0.00,BKN,,0.07,0.0,WeatherDisplay:10.37,2013-01-16 21:44:00,
2013-01-16 22:49:00,20.4,17.7,29.97,NE,42,0.0,0.0,89,0.00,BKN,,0.07,0.0,WeatherDisplay:10.37,2013-01-16 21:49:00,
2013-01-16 22:54:00,20.5,18.0,29.97,NE,42,0.0,0.0,90,0.00,BKN,,0.07,0.0,WeatherDisplay:10.37,2013-01-16 21:54:00,
2013-01-16 22:59:00,20.5,18.0,29.97,NE,42,0.0,0.0,90,0.00,BKN,,0.07,0.0,WeatherDisplay:10.37,2013-01-16 21:59:00,
2013-01-16 23:04:00,20.2,17.5,29.97,NE,42,0.0,0.0,89,0.00,BKN,,0.07,0.0,WeatherDisplay:10.37,2013-01-16 22:04:00,
2013-01-16 23:09:00,20.0,17.3,29.97,NE,42,0.0,0.0,89,0.00,BKN,,0.07,0.0,WeatherDisplay:10.37,2013-01-16 22:09:00,
2013-01-16 23:14:00,19.8,17.1,29.97,NE,42,0.0,0.0,89,0.00,BKN,,0.07,0.0,WeatherDisplay:10.37,2013-01-16 22:14:00,
2013-01-16 23:19:00,19.6,16.9,29.98,NE,42,0.0,0.0,89,0.00,BKN,,0.07,0.0,WeatherDisplay:10.37,2013-01-16 22:19:00,
2013-01-16 23:24:00,19.4,16.7,29.97,NE,42,0.0,0.0,89,0.00,BKN,,0.07,0.0,WeatherDisplay:10.37,2013-01-16 22:24:00,
2013-01-16 23:29:00,19.3,16.8,29.98,NE,42,0.0,1.1,90,0.00,BKN,,0.07,0.0,WeatherDisplay:10.37,2013-01-16 22:29:00,
2013-01-16 23:34:00,19.4,16.9,29.98,NE,42,1.4,2.3,90,0.00,BKN,,0.07,0.0,WeatherDisplay:10.37,2013-01-16 22:34:00,
2013-01-16 23:39:00,19.1,16.6,29.98,NE,42,0.0,0.0,90,0.00,BKN,,0.07,0.0,WeatherDisplay:10.37,2013-01-16 22:39:00,
2013-01-16 23:44:00,19.1,16.6,29.98,NE,42,0.0,0.0,90,0.00,BKN,,0.07,0.0,WeatherDisplay:10.37,2013-01-16 22:44:00,
2013-01-16 23:49:00,19.0,16.5,29.98,NE,42,0.0,0.0,90,0.00,BKN,,0.07,0.0,WeatherDisplay:10.37,2013-01-16 22:49:00,
2013-01-16 23:54:00,19.1,16.9,29.99,NE,42,0.0,0.0,91,0.00,BKN,,0.07,0.0,WeatherDisplay:10.37,2013-01-16 22:54:00,
2013-01-16 23:59:00,19.1,16.9,29.99,NE,42,1.7,3.5,91,0.00,BKN,,0.07,0.0,WeatherDisplay:10.37,2013-01-16 22:59:00,